Time;durP1;ratioP1;P1;durP2;ratioP2;P2;SDS_P1;SDS_P2;PMS_P1;PMS_P2;Temp;Humidity;BMP_temperature;BMP_pressure;BME280_temperature;BME280_humidity;BME280_pressure;Samples;Min_cycle;Max_cycle;Signal;HPM_P1;HPM_P2
2023/05/30 00:01:20;;;;;;;;;;;;;;;22.64;39.27;101581.15;2215306;78;52444;-78
2023/05/30 00:04:23;;;;;;;;;;;;;;;22.63;39.16;101587.55;2186163;79;50181;-77
2023/05/30 00:07:24;;;;;;;;;;;;;;;22.62;39.28;101590.77;2143341;82;50728;-77
2023/05/30 00:10:26;;;;;;;;;;;;;;;22.62;39.20;101581.32;2148953;82;50663;-76
2023/05/30 00:13:28;;;;;;;;;;;;;;;22.63;38.96;101584.84;2227090;79;51170;-78
2023/05/30 00:16:31;;;;;;;;;;;;;;;22.62;39.02;101588.06;2249530;79;50262;-77
2023/05/30 00:19:34;;;;;;;;;;;;;;;22.61;39.12;101588.58;2249974;78;50555;-76
2023/05/30 00:22:41;;;;;;;;;;;;;;;22.61;39.04;101590.45;2249774;78;51568;-77
2023/05/30 00:25:39;;;;;;;;;;;;;;;22.61;39.01;101595.84;2226164;78;22332;-78
2023/05/30 00:28:41;;;;;;;;;;;;;;;22.60;38.92;101594.98;2258848;76;50365;-78
2023/05/30 00:31:42;;;;;;;;;;;;;;;22.58;39.10;101594.36;2255010;77;50441;-77
2023/05/30 00:34:44;;;;;;;;;;;;;;;22.59;39.08;101597.89;2252412;78;50278;-75
2023/05/30 00:37:46;;;;;;;;;;;;;;;22.58;38.98;101594.84;2255215;79;51540;-77
2023/05/30 00:40:51;;;;;;;;;;;;;;;22.57;39.02;101595.36;2256098;77;50521;-76
2023/05/30 00:43:53;;;;;;;;;;;;;;;22.56;38.98;101596.40;2255985;78;22091;-77
2023/05/30 00:46:55;;;;;;;;;;;;;;;22.56;38.95;101592.87;2255591;77;50322;-76
2023/05/30 00:50:01;;;;;;;;;;;;;;;22.57;38.89;101598.58;2253980;77;51665;-78
2023/05/30 00:53:04;;;;;;;;;;;;;;;22.57;38.90;101599.92;2253448;78;22529;-77
2023/05/30 00:56:07;;;;;;;;;;;;;;;22.56;38.84;101602.31;2252399;78;51535;-77
2023/05/30 00:59:08;;;;;;;;;;;;;;;22.57;38.88;101591.84;2268070;77;51539;-77
2023/05/30 01:02:10;;;;;;;;;;;;;;;22.55;38.88;101593.88;2282128;77;52419;-76
2023/05/30 01:05:14;;;;;;;;;;;;;;;22.55;38.92;101595.22;2291030;77;50213;-77
2023/05/30 01:08:15;;;;;;;;;;;;;;;22.54;38.93;101593.56;2291159;77;22136;-76
2023/05/30 01:11:36;;;;;;;;;;;;;;;22.54;38.83;101590.86;2292871;76;51525;-75
2023/05/30 01:14:42;;;;;;;;;;;;;;;22.54;38.83;101590.86;2293147;77;48946;-77
2023/05/30 01:17:46;;;;;;;;;;;;;;;22.54;38.78;101594.91;2290386;77;51467;-77
2023/05/30 01:20:48;;;;;;;;;;;;;;;22.53;38.73;101602.66;2291117;76;51514;-76
2023/05/30 01:23:54;;;;;;;;;;;;;;;22.53;38.65;101602.66;2291108;77;50335;-77
2023/05/30 01:27:13;;;;;;;;;;;;;;;22.52;38.37;101601.83;2292857;77;52556;-78
2023/05/30 01:30:15;;;;;;;;;;;;;;;22.51;38.58;101591.24;2205134;78;50720;-76
2023/05/30 01:33:17;;;;;;;;;;;;;;;22.51;38.34;101592.59;2215570;80;51504;-78
2023/05/30 01:36:18;;;;;;;;;;;;;;;22.50;38.42;101592.25;2215642;79;50465;-77
2023/05/30 01:39:20;;;;;;;;;;;;;;;22.50;38.48;101598.99;2192344;80;50189;-79
2023/05/30 01:42:26;;;;;;;;;;;;;;;22.50;38.50;101608.43;2192629;80;50298;-79
2023/05/30 01:45:30;;;;;;;;;;;;;;;22.50;38.45;101611.12;2192085;80;22360;-79
2023/05/30 01:48:48;;;;;;;;;;;;;;;22.49;38.27;101611.64;2214579;80;50677;-76
2023/05/30 01:51:51;;;;;;;;;;;;;;;22.47;38.07;101605.59;2215821;80;50812;-76
2023/05/30 01:54:54;;;;;;;;;;;;;;;22.48;38.30;101607.77;2215091;80;51435;-78
2023/05/30 01:57:56;;;;;;;;;;;;;;;22.48;38.39;101608.64;2192881;79;50161;-76
2023/05/30 02:00:57;;;;;;;;;;;;;;;22.48;38.37;101611.33;2227762;79;50669;-77
2023/05/30 02:03:59;;;;;;;;;;;;;;;22.47;38.14;101610.16;2246338;78;51840;-76
2023/05/30 02:07:01;;;;;;;;;;;;;;;22.48;38.18;101619.91;2249943;79;50730;-76
2023/05/30 02:10:02;;;;;;;;;;;;;;;22.46;38.25;101610.67;2254076;79;50404;-77
2023/05/30 02:13:04;;;;;;;;;;;;;;;22.45;38.19;101610.33;2251117;79;51602;-77
2023/05/30 02:16:06;;;;;;;;;;;;;;;22.44;38.00;101603.27;2233136;79;49674;-76
2023/05/30 02:19:08;;;;;;;;;;;;;;;22.44;38.07;101617.27;2253234;79;51491;-76
2023/05/30 02:22:10;;;;;;;;;;;;;;;22.44;38.20;101612.71;2254239;79;51579;-78
2023/05/30 02:25:11;;;;;;;;;;;;;;;22.43;38.08;101611.05;2255316;78;50702;-78
2023/05/30 02:28:13;;;;;;;;;;;;;;;22.43;38.10;101604.80;2258052;78;51698;-77
2023/05/30 02:31:14;;;;;;;;;;;;;;;22.43;38.09;101614.23;2210591;79;50725;-77
2023/05/30 02:34:16;;;;;;;;;;;;;;;22.42;38.15;101612.05;2227223;78;52012;-78
2023/05/30 02:37:17;;;;;;;;;;;;;;;22.42;37.99;101607.18;2279206;78;51438;-78
2023/05/30 02:40:19;;;;;;;;;;;;;;;22.41;38.02;101608.21;2237287;78;52561;-76
2023/05/30 02:43:21;;;;;;;;;;;;;;;22.42;37.89;101609.36;2281260;77;50699;-78
2023/05/30 02:46:22;;;;;;;;;;;;;;;22.40;37.89;101606.00;2277219;78;49889;-77
2023/05/30 02:49:24;;;;;;;;;;;;;;;22.39;37.72;101603.82;2276791;77;50696;-77
2023/05/30 02:52:25;;;;;;;;;;;;;;;22.39;38.00;101607.87;2277020;77;51481;-78
2023/05/30 02:55:27;;;;;;;;;;;;;;;22.38;38.08;101605.38;2277047;78;51442;-77
2023/05/30 02:58:28;;;;;;;;;;;;;;;22.38;38.04;101612.95;2278222;77;51445;-77
2023/05/30 03:01:30;;;;;;;;;;;;;;;22.38;37.98;101614.81;2279313;77;51439;-76
2023/05/30 03:04:32;;;;;;;;;;;;;;;22.38;37.92;101614.30;2287909;78;51501;-78
2023/05/30 03:07:35;;;;;;;;;;;;;;;22.37;37.85;101609.91;2287539;78;51480;-77
2023/05/30 03:10:37;;;;;;;;;;;;;;;22.37;37.91;101616.64;2289037;76;50458;-78
2023/05/30 03:13:38;;;;;;;;;;;;;;;22.37;37.78;101626.60;2289531;77;50476;-78
2023/05/30 03:16:40;;;;;;;;;;;;;;;22.37;38.10;101626.60;2289309;77;51236;-78
2023/05/30 03:19:42;;;;;;;;;;;;;;;22.35;38.04;101629.98;2287339;77;51720;-78
2023/05/30 03:22:43;;;;;;;;;;;;;;;22.34;38.15;101630.50;2287780;78;50379;-78
2023/05/30 03:25:45;;;;;;;;;;;;;;;22.34;38.05;101629.16;2287725;78;50442;-77
2023/05/30 03:28:47;;;;;;;;;;;;;;;22.34;37.96;101625.11;2280895;77;52390;-77
2023/05/30 03:31:48;;;;;;;;;;;;;;;22.35;37.90;101624.59;2255154;78;50770;-76
2023/05/30 03:34:50;;;;;;;;;;;;;;;22.33;37.87;101634.75;2209554;79;50381;-77
2023/05/30 03:37:51;;;;;;;;;;;;;;;22.33;38.05;101640.98;2196635;80;50691;-76
2023/05/30 03:40:53;;;;;;;;;;;;;;;22.33;38.00;101635.58;2174975;80;51735;-76
2023/05/30 03:43:54;;;;;;;;;;;;;;;22.33;38.06;101636.10;2196894;80;51487;-76
2023/05/30 03:46:56;;;;;;;;;;;;;;;22.32;38.06;101632.55;2196423;80;51439;-76
2023/05/30 03:50:00;;;;;;;;;;;;;;;22.32;38.09;101641.98;2196785;80;51417;-77
2023/05/30 03:53:01;;;;;;;;;;;;;;;22.32;37.99;101645.19;2175029;81;52468;-77
2023/05/30 03:56:03;;;;;;;;;;;;;;;22.30;38.05;101643.19;2197057;80;49944;-77
2023/05/30 03:59:05;;;;;;;;;;;;;;;22.31;38.06;101646.23;2209293;79;51419;-76
2023/05/30 04:02:06;;;;;;;;;;;;;;;22.30;38.08;101642.70;2213535;79;52374;-77
2023/05/30 04:05:09;;;;;;;;;;;;;;;22.31;38.09;101650.27;2205153;79;51153;-76
2023/05/30 04:08:10;;;;;;;;;;;;;;;22.30;37.94;101654.83;2226940;78;51536;-76
2023/05/30 04:11:12;;;;;;;;;;;;;;;22.30;37.95;101651.27;2232832;78;51655;-75
2023/05/30 04:14:13;;;;;;;;;;;;;;;22.30;38.16;101656.18;2213767;79;51307;-77
2023/05/30 04:17:15;;;;;;;;;;;;;;;22.28;38.18;101651.47;2189505;79;52609;-78
2023/05/30 04:20:17;;;;;;;;;;;;;;;22.29;38.19;101668.48;2214364;78;50408;-76
2023/05/30 04:23:18;;;;;;;;;;;;;;;22.28;38.04;101667.66;2213974;79;51457;-77
2023/05/30 04:26:22;;;;;;;;;;;;;;;22.28;38.00;101666.82;2214364;78;50252;-75
2023/05/30 04:29:23;;;;;;;;;;;;;;;22.27;38.17;101671.38;2213729;78;22414;-76
2023/05/30 04:32:25;;;;;;;;;;;;;;;22.27;38.19;101670.03;2214509;79;51492;-77
2023/05/30 04:35:26;;;;;;;;;;;;;;;22.27;38.21;101673.21;2235062;79;50681;-75
2023/05/30 04:38:28;;;;;;;;;;;;;;;22.27;38.28;101674.56;2291541;77;51529;-75
2023/05/30 04:41:30;;;;;;;;;;;;;;;22.27;38.27;101672.73;2276950;77;51736;-77
2023/05/30 04:44:37;;;;;;;;;;;;;;;22.29;38.09;101669.83;2292136;77;50409;-75
2023/05/30 04:47:38;;;;;;;;;;;;;;;22.30;38.38;101671.49;2287943;77;22998;-76
2023/05/30 04:50:40;;;;;;;;;;;;;;;22.32;38.01;101677.03;2292114;77;51646;-74
2023/05/30 04:53:41;;;;;;;;;;;;;;;22.38;38.51;101676.84;2291972;77;52332;-74
2023/05/30 04:56:43;;;;;;;;;;;;;;;22.43;38.34;101674.91;2291909;77;51426;-74
2023/05/30 04:59:44;;;;;;;;;;;;;;;22.47;37.88;101678.41;2287736;77;51616;-73
2023/05/30 05:02:46;;;;;;;;;;;;;;;22.52;37.41;101684.61;2287046;77;50696;-73
2023/05/30 05:05:48;;;;;;;;;;;;;;;22.57;36.89;101680.84;2292202;77;49741;-76
2023/05/30 05:08:49;;;;;;;;;;;;;;;22.61;36.54;101682.17;2287629;77;50761;-77
2023/05/30 05:11:51;;;;;;;;;;;;;;;22.75;36.30;101677.27;2287066;77;51520;-76
2023/05/30 05:14:54;;;;;;;;;;;;;;;22.89;35.57;101676.10;2292091;77;51610;-76
2023/05/30 05:17:56;;;;;;;;;;;;;;;22.85;34.44;101685.09;2291898;76;51181;-77
2023/05/30 05:20:57;;;;;;;;;;;;;;;22.78;34.06;101682.29;2287915;77;51595;-76
2023/05/30 05:23:59;;;;;;;;;;;;;;;22.82;34.26;101682.26;2287408;77;51507;-76
2023/05/30 05:27:01;;;;;;;;;;;;;;;22.86;34.60;101681.88;2292154;77;51558;-76
2023/05/30 05:30:02;;;;;;;;;;;;;;;22.92;35.03;101691.95;2266289;77;51512;-76
2023/05/30 05:33:04;;;;;;;;;;;;;;;23.01;35.13;101694.89;2257328;78;50658;-76
2023/05/30 05:36:06;;;;;;;;;;;;;;;23.07;35.22;101694.16;2259850;78;50664;-75
2023/05/30 05:39:08;;;;;;;;;;;;;;;23.06;35.55;101692.47;2212472;79;50281;-75
2023/05/30 05:42:10;;;;;;;;;;;;;;;23.06;35.56;101694.34;2236858;78;51560;-74
2023/05/30 05:45:12;;;;;;;;;;;;;;;23.18;35.56;101693.67;2257600;79;51560;-76
2023/05/30 05:48:13;;;;;;;;;;;;;;;23.19;35.43;101703.95;2211878;80;51480;-74
2023/05/30 05:51:15;;;;;;;;;;;;;;;23.29;35.26;101706.37;2213281;79;51465;-74
2023/05/30 05:54:17;;;;;;;;;;;;;;;23.32;35.13;101696.53;2167829;81;51166;-75
2023/05/30 05:57:18;;;;;;;;;;;;;;;23.32;35.07;101704.63;2194768;80;51540;-74
2023/05/30 06:00:20;;;;;;;;;;;;;;;23.37;34.97;101696.80;2257853;77;50287;-75
2023/05/30 06:03:21;;;;;;;;;;;;;;;23.40;34.98;101691.02;2213019;80;51487;-75
2023/05/30 06:06:23;;;;;;;;;;;;;;;23.48;34.81;101701.21;2257073;79;51598;-74
2023/05/30 06:09:30;;;;;;;;;;;;;;;23.54;34.58;101698.77;2263801;77;52462;-74
2023/05/30 06:12:28;;;;;;;;;;;;;;;23.52;34.58;101701.66;2267814;78;22288;-74
2023/05/30 06:15:29;;;;;;;;;;;;;;;23.53;34.63;101705.19;2281170;78;50687;-74
2023/05/30 06:18:31;;;;;;;;;;;;;;;23.52;34.58;101707.05;2282693;77;52373;-74
2023/05/30 06:21:33;;;;;;;;;;;;;;;23.54;34.52;101711.77;2281221;78;51463;-75
2023/05/30 06:24:34;;;;;;;;;;;;;;;23.57;34.44;101718.13;2282910;77;50127;-74
2023/05/30 06:27:36;;;;;;;;;;;;;;;23.57;34.54;101708.67;2281051;77;51465;-74
2023/05/30 06:30:37;;;;;;;;;;;;;;;23.57;34.45;101714.08;2282974;77;51525;-74
2023/05/30 06:33:39;;;;;;;;;;;;;;;23.62;34.56;101711.64;2282563;77;51449;-75
2023/05/30 06:36:41;;;;;;;;;;;;;;;23.63;34.39;101705.72;2282420;78;51523;-74
2023/05/30 06:39:42;;;;;;;;;;;;;;;23.67;34.46;101706.50;2280576;78;51555;-75
2023/05/30 06:42:44;;;;;;;;;;;;;;;23.66;34.41;101707.55;2285207;77;52613;-75
2023/05/30 06:45:45;;;;;;;;;;;;;;;23.69;34.38;101715.78;2281297;78;51551;-74
2023/05/30 06:48:47;;;;;;;;;;;;;;;23.72;34.21;101714.56;2282529;77;51505;-75
2023/05/30 06:51:49;;;;;;;;;;;;;;;23.69;34.11;101709.02;2282921;77;50218;-75
2023/05/30 06:54:50;;;;;;;;;;;;;;;23.69;34.08;101720.67;2282811;78;52277;-75
2023/05/30 06:57:55;;;;;;;;;;;;;;;23.69;33.97;101720.67;2282693;77;51554;-74
2023/05/30 07:00:56;;;;;;;;;;;;;;;23.70;33.83;101725.55;2281238;77;50331;-74
2023/05/30 07:03:58;;;;;;;;;;;;;;;23.69;33.75;101726.07;2282882;77;50488;-74
2023/05/30 07:07:00;;;;;;;;;;;;;;;23.68;33.82;101731.13;2282629;77;51808;-75
2023/05/30 07:10:01;;;;;;;;;;;;;;;23.69;33.71;101727.42;2280904;78;50298;-74
2023/05/30 07:13:03;;;;;;;;;;;;;;;23.70;33.63;101728.25;2284512;77;50768;-73
2023/05/30 07:16:05;;;;;;;;;;;;;;;23.69;33.66;101728.77;2282698;77;51363;-74
2023/05/30 07:19:06;;;;;;;;;;;;;;;23.70;33.50;101731.78;2282579;78;49748;-74
2023/05/30 07:22:08;;;;;;;;;;;;;;;23.69;33.48;101728.77;2281140;78;50242;-74
2023/05/30 07:25:10;;;;;;;;;;;;;;;23.69;33.33;101732.83;2281166;78;51480;-74
2023/05/30 07:28:11;;;;;;;;;;;;;;;23.68;33.37;101732.48;2282644;78;51732;-75
2023/05/30 07:31:13;;;;;;;;;;;;;;;23.68;33.32;101732.48;2282672;77;51672;-73
2023/05/30 07:34:15;;;;;;;;;;;;;;;23.68;33.32;101730.30;2281126;78;51592;-74
2023/05/30 07:37:16;;;;;;;;;;;;;;;23.67;33.21;101738.09;2282535;77;50697;-74
2023/05/30 07:40:18;;;;;;;;;;;;;;;23.65;33.19;101743.68;2282747;77;52501;-74
2023/05/30 07:43:20;;;;;;;;;;;;;;;23.65;33.14;101738.80;2272706;77;51280;-74
2023/05/30 07:46:22;;;;;;;;;;;;;;;23.64;33.08;101742.54;2282466;78;50702;-74
2023/05/30 07:49:24;;;;;;;;;;;;;;;23.61;33.06;101738.35;2281143;78;50042;-74
2023/05/30 07:52:25;;;;;;;;;;;;;;;23.60;33.08;101731.25;2282389;78;50339;-74
2023/05/30 07:55:27;;;;;;;;;;;;;;;23.60;33.05;101738.00;2282534;77;52523;-74
2023/05/30 07:58:28;;;;;;;;;;;;;;;23.58;33.05;101734.69;2280921;78;51569;-74
2023/05/30 08:01:32;;;;;;;;;;;;;;;23.57;33.10;101741.61;2281117;78;51516;-74
2023/05/30 08:04:33;;;;;;;;;;;;;;;23.56;33.04;101744.84;2281474;76;22340;-74
2023/05/30 08:07:35;;;;;;;;;;;;;;;23.52;33.08;101748.93;2280993;78;51561;-74
2023/05/30 08:10:37;;;;;;;;;;;;;;;23.51;33.11;101740.52;2273880;77;49680;-74
2023/05/30 08:13:38;;;;;;;;;;;;;;;23.50;33.10;101745.58;2226291;79;50697;-75
2023/05/30 08:16:40;;;;;;;;;;;;;;;23.51;33.06;101737.81;2218512;80;51561;-73
2023/05/30 08:19:42;;;;;;;;;;;;;;;23.49;33.15;101735.81;2193993;81;51486;-75
2023/05/30 08:22:44;;;;;;;;;;;;;;;23.47;33.15;101741.91;2212450;80;51793;-74
2023/05/30 08:25:46;;;;;;;;;;;;;;;23.46;33.18;101738.37;2213043;80;50398;-74
2023/05/30 08:28:48;;;;;;;;;;;;;;;23.45;33.20;101734.50;2213701;80;50750;-74
2023/05/30 08:31:50;;;;;;;;;;;;;;;23.45;33.10;101729.09;2201241;80;51540;-74
2023/05/30 08:34:51;;;;;;;;;;;;;;;23.45;33.10;101742.60;2213056;80;51446;-74
2023/05/30 08:37:53;;;;;;;;;;;;;;;23.42;33.22;101734.88;2212972;79;51468;-74
2023/05/30 08:40:55;;;;;;;;;;;;;;;23.44;33.21;101738.23;2225969;79;51620;-74
2023/05/30 08:43:56;;;;;;;;;;;;;;;23.41;33.22;101739.45;2225705;80;50838;-74
2023/05/30 08:46:58;;;;;;;;;;;;;;;23.41;33.21;101738.63;2223194;78;52965;-74
2023/05/30 08:50:01;;;;;;;;;;;;;;;23.40;33.21;101734.23;2225711;80;50637;-74
2023/05/30 08:53:04;;;;;;;;;;;;;;;23.39;33.24;101739.32;2234131;79;52450;-74
2023/05/30 08:56:08;;;;;;;;;;;;;;;23.38;33.24;101744.41;2225619;80;51611;-75
2023/05/30 08:59:09;;;;;;;;;;;;;;;23.36;33.30;101741.88;2215852;79;51781;-73
2023/05/30 09:02:11;;;;;;;;;;;;;;;23.35;33.35;101734.82;2238746;79;50688;-73
2023/05/30 09:05:17;;;;;;;;;;;;;;;23.34;33.39;101740.39;2240176;79;51511;-74
2023/05/30 09:08:16;;;;;;;;;;;;;;;23.34;33.35;101747.15;2245828;79;22532;-74
2023/05/30 09:11:18;;;;;;;;;;;;;;;23.31;33.40;101745.66;2220121;79;50749;-74
2023/05/30 09:14:20;;;;;;;;;;;;;;;23.31;33.27;101734.03;2211294;80;50205;-74
2023/05/30 09:17:22;;;;;;;;;;;;;;;23.29;33.43;101745.52;2204216;80;51492;-73
2023/05/30 09:20:23;;;;;;;;;;;;;;;23.23;33.48;101741.20;2210609;80;50296;-75
2023/05/30 09:23:25;;;;;;;;;;;;;;;23.22;33.52;101746.28;2210364;80;51602;-74
2023/05/30 09:26:27;;;;;;;;;;;;;;;23.19;33.49;101738.53;2204133;80;51565;-74
2023/05/30 09:29:28;;;;;;;;;;;;;;;23.19;33.39;101741.23;2204522;80;51420;-74
2023/05/30 09:32:34;;;;;;;;;;;;;;;23.17;33.38;101746.01;2204505;79;51438;-75
2023/05/30 09:35:33;;;;;;;;;;;;;;;23.16;33.33;101748.36;2237589;79;22324;-74
2023/05/30 09:38:35;;;;;;;;;;;;;;;23.16;33.26;101743.48;2247473;78;50770;-74
2023/05/30 09:41:37;;;;;;;;;;;;;;;23.16;33.27;101744.83;2238340;78;50335;-74
2023/05/30 09:44:40;;;;;;;;;;;;;;;23.13;33.35;101755.50;2217332;79;51547;-73
2023/05/30 09:47:42;;;;;;;;;;;;;;;23.11;33.40;101750.78;2246195;78;51786;-74
2023/05/30 09:50:44;;;;;;;;;;;;;;;23.09;33.38;101748.78;2223098;78;50504;-74
2023/05/30 09:53:50;;;;;;;;;;;;;;;23.09;33.44;101748.78;2204612;80;52220;-74
2023/05/30 09:56:53;;;;;;;;;;;;;;;23.10;33.51;101747.77;2286806;77;50332;-75
2023/05/30 09:59:55;;;;;;;;;;;;;;;23.09;33.57;101751.48;2293279;76;51510;-75
2023/05/30 10:02:57;;;;;;;;;;;;;;;23.09;33.72;101761.45;2290611;77;50360;-74
2023/05/30 10:05:59;;;;;;;;;;;;;;;23.10;33.83;101747.77;2289073;77;50465;-75
2023/05/30 10:09:00;;;;;;;;;;;;;;;23.08;33.84;101744.41;2289588;76;51596;-74
2023/05/30 10:12:03;;;;;;;;;;;;;;;23.08;34.29;101745.77;2275976;77;52396;-74
2023/05/30 10:15:06;;;;;;;;;;;;;;;23.08;33.77;101739.53;2224147;78;51539;-74
2023/05/30 10:18:08;;;;;;;;;;;;;;;23.08;33.79;101738.19;2214359;80;50388;-75
2023/05/30 10:21:10;;;;;;;;;;;;;;;23.06;34.02;101743.76;2223920;78;51451;-74
2023/05/30 10:24:13;;;;;;;;;;;;;;;23.06;34.08;101748.33;2199884;79;51317;-75
2023/05/30 10:27:17;;;;;;;;;;;;;;;23.07;33.88;101744.10;2223234;79;51366;-74
2023/05/30 10:30:20;;;;;;;;;;;;;;;23.06;34.05;101738.36;2251035;78;51606;-75
2023/05/30 10:33:21;;;;;;;;;;;;;;;23.03;34.53;101739.57;2210635;79;50493;-74
2023/05/30 10:36:23;;;;;;;;;;;;;;;23.03;34.33;101736.04;2203126;79;51354;-75
2023/05/30 10:39:29;;;;;;;;;;;;;;;23.03;34.17;101745.48;2217819;78;51588;-74
2023/05/30 10:42:32;;;;;;;;;;;;;;;23.02;34.38;101746.52;2223439;79;51921;-75
2023/05/30 10:45:44;;;;;;;;;;;;;;;23.01;34.45;101743.48;2217740;79;50361;-75
2023/05/30 10:48:50;;;;;;;;;;;;;;;22.99;34.58;101739.63;2250597;77;51706;-75
2023/05/30 10:51:59;;;;;;;;;;;;;;;22.99;34.57;101734.72;2193868;81;50788;-75
2023/05/30 10:55:01;;;;;;;;;;;;;;;22.98;34.69;101736.59;2251347;79;50300;-74
2023/05/30 10:58:03;;;;;;;;;;;;;;;22.99;34.70;101732.02;2205668;78;50343;-75
2023/05/30 11:01:25;;;;;;;;;;;;;;;22.98;34.91;101729.02;2230479;78;51272;-75
2023/05/30 11:04:30;;;;;;;;;;;;;;;22.97;35.00;101734.09;2213584;79;50320;-75
2023/05/30 11:07:34;;;;;;;;;;;;;;;22.96;35.00;101733.72;2212699;80;51607;-73
2023/05/30 11:10:36;;;;;;;;;;;;;;;22.94;35.09;101731.70;2268842;77;51576;-73
2023/05/30 11:13:37;;;;;;;;;;;;;;;22.93;35.12;101726.83;2260706;77;50135;-73
2023/05/30 11:16:56;;;;;;;;;;;;;;;22.94;35.10;101724.97;2250977;78;50293;-73
2023/05/30 11:20:07;;;;;;;;;;;;;;;22.91;35.13;101714.55;2251901;77;50508;-74
2023/05/30 11:23:10;;;;;;;;;;;;;;;22.91;35.18;101716.73;2251564;78;51519;-73
2023/05/30 11:26:14;;;;;;;;;;;;;;;22.91;35.23;101726.17;2251132;78;52417;-74
2023/05/30 11:29:17;;;;;;;;;;;;;;;22.89;35.29;101727.38;2251828;77;50134;-73
2023/05/30 11:32:20;;;;;;;;;;;;;;;22.89;35.26;101730.94;2234537;79;50837;-73
2023/05/30 11:35:22;;;;;;;;;;;;;;;22.89;35.35;101724.69;2251828;79;51631;-73
2023/05/30 11:38:24;;;;;;;;;;;;;;;22.88;35.35;101731.12;2251609;77;51752;-73
2023/05/30 11:41:26;;;;;;;;;;;;;;;22.87;35.37;101730.28;2272856;77;50379;-73
2023/05/30 11:44:31;;;;;;;;;;;;;;;22.88;35.40;101731.12;2292871;77;51549;-74
2023/05/30 11:47:32;;;;;;;;;;;;;;;22.88;35.45;101731.95;2290560;77;50795;-73
2023/05/30 11:50:38;;;;;;;;;;;;;;;22.88;35.41;101728.41;2267112;77;49650;-74
2023/05/30 11:53:40;;;;;;;;;;;;;;;22.88;35.44;101718.97;2290517;77;50384;-74
2023/05/30 11:56:42;;;;;;;;;;;;;;;22.88;35.50;101718.97;2290392;77;51544;-73
2023/05/30 11:59:44;;;;;;;;;;;;;;;22.88;35.52;101714.41;2290409;76;51480;-74
2023/05/30 12:02:46;;;;;;;;;;;;;;;22.88;35.50;101718.97;2292697;77;52563;-74
2023/05/30 12:05:47;;;;;;;;;;;;;;;22.87;35.57;101707.34;2290636;77;51468;-73
2023/05/30 12:08:50;;;;;;;;;;;;;;;22.88;35.63;101704.13;2290323;76;50799;-73
2023/05/30 12:11:58;;;;;;;;;;;;;;;22.87;35.65;101701.95;2272116;77;50390;-74
2023/05/30 12:15:04;;;;;;;;;;;;;;;22.88;35.67;101699.56;2292984;77;51709;-74
2023/05/30 12:18:05;;;;;;;;;;;;;;;22.88;35.72;101699.56;2292290;77;50450;-73
2023/05/30 12:21:08;;;;;;;;;;;;;;;22.89;35.64;101711.19;2290687;76;51452;-74
2023/05/30 12:24:11;;;;;;;;;;;;;;;22.89;35.76;101703.09;2290681;77;50517;-73
2023/05/30 12:27:16;;;;;;;;;;;;;;;22.89;35.75;101701.25;2267102;77;51013;-74
2023/05/30 12:30:18;;;;;;;;;;;;;;;22.89;35.89;101700.39;2290616;77;50741;-74
2023/05/30 12:33:21;;;;;;;;;;;;;;;22.89;35.88;101690.95;2292846;77;52496;-74
2023/05/30 12:36:23;;;;;;;;;;;;;;;22.90;35.92;101695.34;2290236;77;50406;-74
2023/05/30 12:39:25;;;;;;;;;;;;;;;22.90;35.96;101696.17;2290084;76;49621;-73
2023/05/30 12:42:30;;;;;;;;;;;;;;;22.89;35.98;101701.25;2272559;77;51417;-74
2023/05/30 12:45:33;;;;;;;;;;;;;;;22.89;36.04;101699.91;2251803;79;50843;-74
2023/05/30 12:48:34;;;;;;;;;;;;;;;22.91;35.99;101702.40;2251888;77;50505;-73
2023/05/30 12:51:37;;;;;;;;;;;;;;;22.91;36.09;101699.70;2250999;79;51284;-74
2023/05/30 12:54:38;;;;;;;;;;;;;;;22.89;36.13;101691.81;2251756;79;51577;-73
2023/05/30 12:57:40;;;;;;;;;;;;;;;22.91;36.13;101683.51;2250995;78;50141;-73
2023/05/30 13:00:41;;;;;;;;;;;;;;;22.91;36.19;101692.95;2251644;77;50052;-74
2023/05/30 13:03:43;;;;;;;;;;;;;;;22.91;36.13;101697.00;2253019;77;49518;-74
2023/05/30 13:06:45;;;;;;;;;;;;;;;22.91;36.17;101695.14;2251199;79;50407;-74
2023/05/30 13:09:47;;;;;;;;;;;;;;;22.89;36.27;101689.11;2261736;77;50241;-73
2023/05/30 13:12:48;;;;;;;;;;;;;;;22.93;36.20;101694.96;2277328;77;51469;-73
2023/05/30 13:15:50;;;;;;;;;;;;;;;22.95;36.21;101701.84;2292674;77;51696;-74
2023/05/30 13:18:52;;;;;;;;;;;;;;;22.97;36.09;101694.95;2292448;76;50414;-74
2023/05/30 13:21:53;;;;;;;;;;;;;;;22.96;36.24;101691.88;2292744;77;50311;-74
2023/05/30 13:24:55;;;;;;;;;;;;;;;22.97;36.19;101679.59;2290568;77;50452;-74
2023/05/30 13:27:56;;;;;;;;;;;;;;;22.98;36.20;101696.62;2292479;77;50857;-74
2023/05/30 13:30:58;;;;;;;;;;;;;;;22.97;36.17;101686.86;2292668;77;50580;-74
2023/05/30 13:34:00;;;;;;;;;;;;;;;22.98;36.04;101687.17;2292589;77;50378;-74
2023/05/30 13:37:02;;;;;;;;;;;;;;;22.97;36.17;101685.52;2290114;77;50781;-74
2023/05/30 13:40:04;;;;;;;;;;;;;;;22.97;36.03;101693.09;2289877;76;50981;-74
2023/05/30 13:43:05;;;;;;;;;;;;;;;22.97;35.90;101680.95;2277616;77;50881;-73
2023/05/30 13:46:07;;;;;;;;;;;;;;;22.98;35.96;101692.05;2290582;77;51516;-76
2023/05/30 13:49:09;;;;;;;;;;;;;;;22.97;35.82;101679.59;2290635;76;51421;-74
2023/05/30 13:52:10;;;;;;;;;;;;;;;22.99;35.77;101678.04;2292898;77;52278;-74
2023/05/30 13:55:12;;;;;;;;;;;;;;;22.97;35.59;101675.55;2290649;77;51651;-74
2023/05/30 13:58:13;;;;;;;;;;;;;;;22.97;35.87;101662.57;2290420;77;50108;-74
2023/05/30 14:01:15;;;;;;;;;;;;;;;22.96;35.58;101671.13;2292828;76;51554;-74
2023/05/30 14:04:17;;;;;;;;;;;;;;;22.96;35.52;101672.98;2292579;77;52512;-74
2023/05/30 14:07:18;;;;;;;;;;;;;;;22.95;35.38;101668.63;2292742;77;51354;-74
2023/05/30 14:10:20;;;;;;;;;;;;;;;22.95;35.55;101671.33;2276186;76;51542;-74
2023/05/30 14:13:22;;;;;;;;;;;;;;;22.94;35.34;101675.03;2218341;78;50087;-74
2023/05/30 14:16:23;;;;;;;;;;;;;;;22.95;35.27;101676.72;2206406;78;52502;-74
2023/05/30 14:19:29;;;;;;;;;;;;;;;22.94;35.27;101678.59;2212671;79;51751;-74
2023/05/30 14:22:28;;;;;;;;;;;;;;;22.95;35.21;101671.33;2175233;81;22453;-73
2023/05/30 14:25:30;;;;;;;;;;;;;;;22.95;35.14;101672.67;2213944;79;50442;-74
2023/05/30 14:28:32;;;;;;;;;;;;;;;22.95;35.06;101674.86;2223624;78;51787;-74
2023/05/30 14:31:33;;;;;;;;;;;;;;;22.95;34.92;101664.58;2225974;78;51521;-74
2023/05/30 14:34:35;;;;;;;;;;;;;;;22.95;34.98;101675.38;2251173;78;51549;-74
2023/05/30 14:37:36;;;;;;;;;;;;;;;22.96;34.90;101671.13;2223377;78;50059;-74
2023/05/30 14:40:38;;;;;;;;;;;;;;;22.97;34.84;101674.20;2182193;79;52425;-74
2023/05/30 14:43:40;;;;;;;;;;;;;;;22.98;34.75;101672.33;2247620;79;50287;-74
2023/05/30 14:46:42;;;;;;;;;;;;;;;22.99;34.74;101675.34;2247322;79;50692;-74
2023/05/30 14:49:44;;;;;;;;;;;;;;;23.00;34.67;101682.43;2249560;78;51460;-74
2023/05/30 14:52:46;;;;;;;;;;;;;;;23.00;34.59;101674.33;2212391;79;51233;-74
2023/05/30 14:55:47;;;;;;;;;;;;;;;23.01;34.50;101677.34;2206358;80;50413;-74
2023/05/30 14:58:49;;;;;;;;;;;;;;;23.02;34.47;101677.69;2211890;79;50273;-74
2023/05/30 15:01:51;;;;;;;;;;;;;;;23.02;34.50;101678.52;2210113;79;51581;-73
2023/05/30 15:04:52;;;;;;;;;;;;;;;23.03;34.41;101668.55;2186015;80;51385;-74
2023/05/30 15:07:54;;;;;;;;;;;;;;;23.02;34.38;101669.07;2206266;80;50419;-75
2023/05/30 15:10:56;;;;;;;;;;;;;;;23.04;34.38;101668.87;2205986;80;51577;-74
2023/05/30 15:13:57;;;;;;;;;;;;;;;23.06;34.36;101672.22;2205719;80;50308;-74
2023/05/30 15:16:59;;;;;;;;;;;;;;;23.07;34.21;101669.00;2187411;80;51223;-74
2023/05/30 15:20:00;;;;;;;;;;;;;;;23.07;34.26;101675.75;2247414;78;50426;-74
2023/05/30 15:23:02;;;;;;;;;;;;;;;23.07;34.22;101675.27;2248481;79;50872;-73
2023/05/30 15:26:04;;;;;;;;;;;;;;;23.09;34.17;101671.01;2247722;79;51168;-74
2023/05/30 15:29:06;;;;;;;;;;;;;;;23.07;34.03;101669.87;2214031;79;51725;-74
2023/05/30 15:32:07;;;;;;;;;;;;;;;23.08;33.91;101676.92;2206418;80;50069;-73
2023/05/30 15:35:09;;;;;;;;;;;;;;;23.10;34.02;101676.75;2209856;79;51681;-73